CheckWX is a tool to help pilots better visualize weather data.  It is not intended as a substitute for an official pre-flight weather briefing.

21:01:12 UTC

ETIC METAR
Grafenwohr Army Air Field Airport
Germany
Current

1 hour ago

ETIC 231956Z AUTO 00000KT 9999 CLR M03/M11 A3068 RMK AO2 SLP421 T10291112 FZRANO $
Observed
Feb-23 @ 19:56 UTC
Visibility
10,000+ meters
Flight Rules
VFR
Cloud Levels
  • Clear skies
Temperature
-3°C / 27°F
Dewpoint
-11°C / 12°F
Humidity
54%
Altimeter
30.68" Hg
Pressure
1042.1 hPa
Previous

2 hours ago

ETIC 231856Z AUTO 00000KT 9999 CLR M03/M10 A3068 RMK AO2 SLP423 T10291105 FZRANO $
Observed
Feb-23 @ 18:56 UTC
Visibility
10,000+ meters
Flight Rules
VFR
Cloud Levels
  • Clear skies
Temperature
-3°C / 27°F
Dewpoint
-11°C / 12°F
Humidity
54%
Altimeter
30.68" Hg
Pressure
1042.3 hPa
Previous

3 hours ago

ETIC 231756Z AUTO 00000KT 9999 CLR M01/M11 A3068 RMK AO2 SLP423 T10071106 10054 21007 50002 FZRANO $
Observed
Feb-23 @ 17:56 UTC
Visibility
10,000+ meters
Flight Rules
VFR
Cloud Levels
  • Clear skies
Temperature
-1°C / 30°F
Dewpoint
-11°C / 12°F
Humidity
47%
Altimeter
30.68" Hg
Pressure
1042.3 hPa